createdAt,value
2018-12-12T00:01:56.990Z,15.43
2018-12-12T00:04:24.454Z,15.93
2018-12-12T00:06:52.368Z,10.60
2018-12-12T00:09:19.841Z,12.45
2018-12-12T00:11:47.309Z,14.63
2018-12-12T00:14:14.757Z,10.55
2018-12-12T00:16:42.229Z,16.12
2018-12-12T00:19:09.673Z,9.48
2018-12-12T00:21:37.147Z,12.23
2018-12-12T00:24:04.669Z,10.85
2018-12-12T00:26:32.169Z,11.70
2018-12-12T00:28:59.620Z,17.05
2018-12-12T00:31:27.080Z,12.35
2018-12-12T00:33:54.779Z,11.45
2018-12-12T00:36:22.241Z,19.12
2018-12-12T00:38:49.691Z,8.70
2018-12-12T00:41:17.168Z,12.47
2018-12-12T00:43:44.933Z,18.12
2018-12-12T00:46:12.396Z,11.83
2018-12-12T00:48:40.585Z,11.60
2018-12-12T00:51:08.049Z,11.22
2018-12-12T00:53:35.525Z,10.82
2018-12-12T00:56:02.979Z,11.33
2018-12-12T00:58:30.441Z,10.65
2018-12-12T01:00:57.892Z,13.40
2018-12-12T01:03:25.365Z,15.68
2018-12-12T01:05:52.816Z,19.42
2018-12-12T01:08:20.281Z,12.95
2018-12-12T01:10:49.706Z,13.48
2018-12-12T01:13:17.169Z,15.38
2018-12-12T01:15:44.618Z,14.00
2018-12-12T01:18:12.080Z,11.00
2018-12-12T01:20:39.525Z,14.85
2018-12-12T01:23:07.017Z,11.20
2018-12-12T01:25:34.485Z,13.60
2018-12-12T01:28:01.940Z,11.75
2018-12-12T01:30:29.429Z,15.63
2018-12-12T01:32:56.882Z,14.43
2018-12-12T01:35:24.336Z,10.40
2018-12-12T01:37:51.861Z,9.90
2018-12-12T01:40:19.335Z,14.73
2018-12-12T01:42:46.789Z,11.53
2018-12-12T01:45:14.245Z,12.18
2018-12-12T01:47:41.928Z,16.10
2018-12-12T01:50:09.388Z,12.05
2018-12-12T01:52:36.853Z,17.00
2018-12-12T01:55:04.375Z,11.73
2018-12-12T01:57:31.852Z,11.75
2018-12-12T01:59:59.300Z,11.10
2018-12-12T02:02:26.773Z,12.28
2018-12-12T02:04:54.229Z,18.17
2018-12-12T02:07:21.692Z,11.65
2018-12-12T02:09:49.145Z,10.25
2018-12-12T02:12:16.613Z,12.15
2018-12-12T02:14:44.064Z,10.55
2018-12-12T02:17:11.617Z,12.15
2018-12-12T02:19:39.081Z,10.93
2018-12-12T02:22:06.537Z,10.85
2018-12-12T02:24:34.055Z,14.40
2018-12-12T02:27:01.591Z,9.60
2018-12-12T02:29:29.032Z,10.43
2018-12-12T02:31:56.490Z,11.73
2018-12-12T02:34:24.021Z,12.18
2018-12-12T02:36:51.529Z,16.30
2018-12-12T02:39:19.001Z,15.95
2018-12-12T02:41:46.548Z,9.28
2018-12-12T02:44:14.017Z,12.40
2018-12-12T02:46:41.478Z,9.23
2018-12-12T02:49:08.940Z,12.47
2018-12-12T02:51:36.384Z,19.50
2018-12-12T02:54:03.924Z,12.25
2018-12-12T02:56:31.369Z,14.38
2018-12-12T02:58:58.848Z,9.83
2018-12-12T03:01:26.293Z,10.80
2018-12-12T03:03:53.759Z,10.63
2018-12-12T03:06:21.201Z,10.78
2018-12-12T03:08:48.668Z,13.13
2018-12-12T03:11:18.085Z,17.15
2018-12-12T03:13:45.550Z,10.80
2018-12-12T03:16:13.017Z,14.45
2018-12-12T03:18:40.464Z,12.28
2018-12-12T03:21:07.924Z,16.32
2018-12-12T03:23:35.381Z,10.55
2018-12-12T03:26:02.845Z,22.17
2018-12-12T03:28:30.294Z,11.97
2018-12-12T03:30:57.754Z,9.90
2018-12-12T03:33:25.212Z,11.93
2018-12-12T03:35:52.662Z,10.48
2018-12-12T03:38:20.124Z,11.60
2018-12-12T03:40:47.844Z,12.10
2018-12-12T03:43:15.303Z,13.62
2018-12-12T03:45:42.755Z,11.75
2018-12-12T03:48:10.324Z,12.37
2018-12-12T03:50:37.768Z,14.93
2018-12-12T03:53:05.233Z,16.10
2018-12-12T03:55:32.694Z,13.68
2018-12-12T03:58:00.141Z,12.13
2018-12-12T04:00:27.605Z,15.48
2018-12-12T04:02:55.058Z,15.58
2018-12-12T04:05:22.512Z,12.07
2018-12-12T04:07:49.962Z,11.03
2018-12-12T04:10:17.425Z,10.72
2018-12-12T04:12:44.876Z,15.58
2018-12-12T04:15:12.346Z,13.50
2018-12-12T04:17:39.798Z,12.37
2018-12-12T04:20:07.412Z,10.95
2018-12-12T04:22:34.930Z,10.85
2018-12-12T04:25:02.464Z,7.33
2018-12-12T04:27:30.029Z,12.65
2018-12-12T04:29:58.399Z,12.25
2018-12-12T04:32:26.273Z,9.40
2018-12-12T04:34:53.732Z,14.30
2018-12-12T04:37:21.198Z,10.68
2018-12-12T04:39:48.646Z,12.15
2018-12-12T04:42:16.102Z,9.15
2018-12-12T04:44:43.565Z,9.95
2018-12-12T04:47:11.015Z,11.28
2018-12-12T04:49:38.472Z,9.20
2018-12-12T04:52:05.934Z,8.60
2018-12-12T04:54:33.376Z,6.80
2018-12-12T04:57:00.838Z,6.15
2018-12-12T04:59:28.348Z,7.35
2018-12-12T05:01:55.813Z,11.05
2018-12-12T05:04:23.275Z,9.70
2018-12-12T05:06:50.737Z,7.58
2018-12-12T05:09:18.185Z,7.67
2018-12-12T05:11:45.653Z,9.05
2018-12-12T05:14:13.197Z,8.10
2018-12-12T05:16:40.675Z,8.43
2018-12-12T05:19:08.111Z,9.93
2018-12-12T05:21:35.582Z,8.13
2018-12-12T05:24:03.023Z,8.40
2018-12-12T05:26:30.488Z,8.30
2018-12-12T05:28:57.940Z,8.30
2018-12-12T05:31:25.518Z,8.10
2018-12-12T05:33:52.968Z,11.85
2018-12-12T05:36:20.446Z,7.90
2018-12-12T05:38:47.893Z,8.90
2018-12-12T05:41:15.350Z,7.05
2018-12-12T05:43:42.805Z,10.80
2018-12-12T05:46:10.269Z,5.37
2018-12-12T05:48:37.732Z,6.62
2018-12-12T05:51:05.192Z,6.47
2018-12-12T05:53:32.652Z,6.70
2018-12-12T05:56:02.561Z,6.15
2018-12-12T05:58:29.576Z,7.90
2018-12-12T06:00:57.444Z,6.22
2018-12-12T06:03:24.960Z,5.80
2018-12-12T06:05:52.402Z,7.33
2018-12-12T06:08:19.865Z,7.35
2018-12-12T06:10:47.312Z,6.47
2018-12-12T06:13:14.781Z,6.10
2018-12-12T06:15:42.223Z,9.20
2018-12-12T06:18:09.760Z,11.73
2018-12-12T06:20:37.211Z,9.40
2018-12-12T06:23:04.749Z,8.25
2018-12-12T06:25:32.213Z,6.95
2018-12-12T06:27:59.777Z,6.40
2018-12-12T06:30:27.228Z,10.90
2018-12-12T06:32:54.688Z,7.05
2018-12-12T06:35:22.148Z,7.37
2018-12-12T06:37:49.613Z,9.20
2018-12-12T06:40:17.087Z,7.55
2018-12-12T06:42:44.516Z,7.17
2018-12-12T06:45:12.054Z,6.17
2018-12-12T06:47:39.501Z,9.38
2018-12-12T06:50:07.313Z,8.23
2018-12-12T06:52:34.768Z,7.62
2018-12-12T06:55:02.228Z,6.87
2018-12-12T06:57:29.672Z,8.50
2018-12-12T06:59:57.132Z,8.30
2018-12-12T07:02:24.621Z,6.67
2018-12-12T07:04:52.169Z,4.62
2018-12-12T07:07:19.898Z,9.25
2018-12-12T07:09:47.363Z,6.35
2018-12-12T07:12:14.976Z,6.78
2018-12-12T07:14:42.440Z,11.80
2018-12-12T07:17:09.893Z,6.67
2018-12-12T07:19:37.343Z,7.75
2018-12-12T07:22:04.796Z,10.13
2018-12-12T07:24:32.309Z,4.67
2018-12-12T07:26:59.829Z,4.55
2018-12-12T07:29:27.273Z,4.08
2018-12-12T07:31:54.745Z,8.25
2018-12-12T07:34:22.198Z,4.62
2018-12-12T07:36:49.773Z,4.80
2018-12-12T07:39:18.107Z,7.10
2018-12-12T07:41:45.744Z,5.30
2018-12-12T07:44:13.201Z,6.87
2018-12-12T07:46:42.377Z,9.83
2018-12-12T07:49:10.220Z,6.12
2018-12-12T07:51:40.951Z,6.53
2018-12-12T07:54:08.399Z,9.05
2018-12-12T07:56:35.874Z,5.55
2018-12-12T07:59:03.320Z,5.92
2018-12-12T08:01:30.781Z,5.35
2018-12-12T08:03:58.246Z,5.15
2018-12-12T08:06:25.765Z,5.15
2018-12-12T08:08:53.235Z,6.70
2018-12-12T08:11:20.688Z,5.85
2018-12-12T08:13:48.149Z,5.05
2018-12-12T08:16:15.677Z,5.05
2018-12-12T08:18:43.318Z,5.40
2018-12-12T08:21:10.873Z,4.08
2018-12-12T08:23:38.344Z,4.90
2018-12-12T08:26:09.921Z,6.83
2018-12-12T08:28:37.519Z,10.82
2018-12-12T08:31:04.969Z,3.85
2018-12-12T08:33:32.862Z,5.05
2018-12-12T08:36:00.316Z,5.70
2018-12-12T08:38:27.772Z,6.05
2018-12-12T08:40:55.235Z,4.67
2018-12-12T08:43:22.691Z,4.60
2018-12-12T08:45:51.171Z,6.10
2018-12-12T08:48:18.616Z,4.72
2018-12-12T08:50:46.061Z,6.53
2018-12-12T08:53:13.509Z,5.15
2018-12-12T08:55:40.974Z,4.92
2018-12-12T08:58:08.412Z,4.65
2018-12-12T09:00:35.948Z,6.40
2018-12-12T09:03:03.402Z,5.25
2018-12-12T09:05:30.932Z,5.35
2018-12-12T09:07:58.440Z,5.80
2018-12-12T09:10:25.918Z,9.33
2018-12-12T09:12:53.376Z,5.65
2018-12-12T09:15:20.863Z,7.75
2018-12-12T09:17:48.387Z,5.45
2018-12-12T09:20:15.838Z,5.95
2018-12-12T09:22:43.288Z,8.60
2018-12-12T09:25:10.737Z,8.23
2018-12-12T09:27:38.205Z,6.28
2018-12-12T09:30:05.779Z,7.28
2018-12-12T09:32:33.247Z,5.50
2018-12-12T09:35:00.691Z,4.33
2018-12-12T09:37:28.161Z,17.90
2018-12-12T09:39:55.609Z,6.00
2018-12-12T09:42:23.064Z,4.65
2018-12-12T09:44:50.513Z,5.37
2018-12-12T09:47:17.968Z,5.30
2018-12-12T09:49:45.433Z,4.87
2018-12-12T09:52:12.881Z,4.45
2018-12-12T09:54:40.352Z,4.22
2018-12-12T09:57:07.799Z,3.25
2018-12-12T09:59:35.261Z,6.70
2018-12-12T10:02:02.882Z,4.55
2018-12-12T10:04:30.337Z,3.85
2018-12-12T10:06:58.023Z,4.08
2018-12-12T10:09:25.484Z,4.60
2018-12-12T10:11:52.924Z,4.40
2018-12-12T10:14:20.395Z,5.87
2018-12-12T10:16:47.856Z,6.10
2018-12-12T10:19:15.341Z,4.62
2018-12-12T10:21:43.165Z,3.45
2018-12-12T10:24:10.623Z,5.00
2018-12-12T10:26:38.162Z,3.87
2018-12-12T10:29:05.675Z,5.12
2018-12-12T10:31:33.194Z,4.70
2018-12-12T10:34:00.645Z,6.08
2018-12-12T10:36:28.113Z,5.10
2018-12-12T10:38:55.572Z,5.10
2018-12-12T10:41:23.024Z,4.33
2018-12-12T10:43:50.483Z,3.65
2018-12-12T10:46:17.937Z,3.75
2018-12-12T10:48:45.428Z,7.30
2018-12-12T10:51:12.948Z,3.55
2018-12-12T10:53:40.417Z,3.80
2018-12-12T10:56:07.868Z,3.92
2018-12-12T10:58:35.329Z,3.65
2018-12-12T11:01:08.526Z,2.67
2018-12-12T11:03:43.931Z,5.37
2018-12-12T11:06:07.413Z,4.90
2018-12-12T11:08:34.881Z,4.00
2018-12-12T11:11:02.365Z,3.20
2018-12-12T11:13:29.904Z,4.05
2018-12-12T11:15:57.360Z,2.40
2018-12-12T11:18:24.826Z,2.55
2018-12-12T11:20:52.298Z,2.55
2018-12-12T11:23:19.740Z,2.50
2018-12-12T11:25:47.200Z,2.58
2018-12-12T11:28:16.110Z,2.10
2018-12-12T11:30:43.683Z,2.67
2018-12-12T11:33:11.129Z,2.62
2018-12-12T11:35:38.656Z,3.58
2018-12-12T11:38:06.108Z,2.50
2018-12-12T11:40:33.953Z,4.50
2018-12-12T11:43:01.406Z,2.30
2018-12-12T11:45:28.868Z,3.52
2018-12-12T11:47:57.540Z,24.52
2018-12-12T11:50:25.081Z,2.77
2018-12-12T11:52:52.573Z,3.12
2018-12-12T11:55:20.038Z,3.08
2018-12-12T11:57:47.552Z,2.92
2018-12-12T12:00:15.019Z,2.72
2018-12-12T12:02:43.422Z,2.92
2018-12-12T12:05:10.885Z,2.90
2018-12-12T12:07:38.356Z,7.67
2018-12-12T12:10:07.658Z,2.98
2018-12-12T12:12:35.121Z,2.33
2018-12-12T12:15:02.576Z,3.35
2018-12-12T12:17:30.040Z,3.70
2018-12-12T12:19:57.497Z,2.95
2018-12-12T12:22:24.961Z,2.20
2018-12-12T12:24:52.411Z,2.27
2018-12-12T12:27:19.940Z,2.37
2018-12-12T12:29:47.381Z,2.77
2018-12-12T12:32:15.273Z,3.17
2018-12-12T12:34:42.724Z,2.25
2018-12-12T12:37:10.180Z,4.92
2018-12-12T12:39:37.633Z,2.90
2018-12-12T12:42:05.104Z,2.55
2018-12-12T12:44:32.560Z,2.00
2018-12-12T12:47:00.024Z,2.50
2018-12-12T12:49:27.485Z,3.30
2018-12-12T12:51:55.961Z,2.58
2018-12-12T12:54:23.414Z,2.65
2018-12-12T12:56:50.873Z,2.85
2018-12-12T12:59:18.317Z,2.70
2018-12-12T13:01:45.777Z,3.40
2018-12-12T13:04:14.158Z,2.15
2018-12-12T13:06:41.637Z,3.30
2018-12-12T13:09:09.085Z,3.08
2018-12-12T13:11:37.504Z,2.58
2018-12-12T13:14:05.084Z,2.10
2018-12-12T13:16:32.564Z,3.47
2018-12-12T13:19:00.230Z,2.80
2018-12-12T13:21:27.688Z,2.67
2018-12-12T13:23:55.133Z,2.00
2018-12-12T13:26:22.656Z,2.15
2018-12-12T13:28:50.116Z,2.85
2018-12-12T13:31:17.567Z,2.58
2018-12-12T13:33:45.022Z,2.17
2018-12-12T13:36:12.489Z,2.70
2018-12-12T13:38:39.956Z,3.25
2018-12-12T13:41:07.397Z,2.33
2018-12-12T13:43:34.857Z,3.52
2018-12-12T13:46:02.300Z,1.85
2018-12-12T13:48:29.761Z,2.02
2018-12-12T13:50:57.216Z,5.00
2018-12-12T13:53:24.676Z,2.27
2018-12-12T13:55:52.122Z,2.75
2018-12-12T13:58:19.584Z,3.25
2018-12-12T14:00:47.033Z,2.08
2018-12-12T14:03:14.505Z,3.80
2018-12-12T14:05:41.950Z,2.42
2018-12-12T14:08:09.409Z,2.10
2018-12-12T14:10:36.865Z,2.05
2018-12-12T14:13:04.325Z,2.20
2018-12-12T14:15:31.768Z,4.00
2018-12-12T14:17:59.228Z,2.98
2018-12-12T14:20:26.684Z,1.90
2018-12-12T14:22:54.145Z,1.52
2018-12-12T14:25:21.591Z,2.25
2018-12-12T14:27:49.121Z,2.30
2018-12-12T14:30:16.569Z,1.72
2018-12-12T14:32:44.028Z,3.83
2018-12-12T14:35:11.543Z,2.62
2018-12-12T14:37:39.004Z,2.72
2018-12-12T14:40:06.995Z,2.47
2018-12-12T14:42:34.453Z,2.60
2018-12-12T14:45:01.905Z,4.08
2018-12-12T14:47:29.369Z,2.83
2018-12-12T14:49:56.817Z,3.08
2018-12-12T14:52:24.281Z,2.02
2018-12-12T14:54:51.732Z,2.47
2018-12-12T14:57:19.188Z,2.35
2018-12-12T14:59:46.991Z,2.33
2018-12-12T15:02:14.428Z,1.62
2018-12-12T15:04:41.889Z,1.80
2018-12-12T15:07:09.341Z,1.90
2018-12-12T15:09:36.812Z,2.45
2018-12-12T15:12:04.327Z,2.20
2018-12-12T15:14:31.785Z,3.33
2018-12-12T15:16:59.236Z,1.95
2018-12-12T15:19:26.701Z,1.62
2018-12-12T15:21:54.154Z,2.37
2018-12-12T15:24:21.612Z,1.65
2018-12-12T15:26:49.056Z,2.05
2018-12-12T15:29:16.642Z,2.42
2018-12-12T15:31:44.088Z,2.08
2018-12-12T15:34:11.540Z,3.75
2018-12-12T15:36:38.993Z,2.52
2018-12-12T15:39:07.289Z,1.75
2018-12-12T15:41:34.740Z,2.15
2018-12-12T15:44:02.277Z,1.62
2018-12-12T15:46:29.724Z,2.60
2018-12-12T15:48:57.189Z,1.95
2018-12-12T15:51:24.643Z,1.65
2018-12-12T15:53:52.096Z,2.02
2018-12-12T15:56:19.540Z,1.82
2018-12-12T15:58:47.062Z,2.25
2018-12-12T16:01:14.544Z,4.45
2018-12-12T16:03:42.008Z,2.58
2018-12-12T16:06:09.461Z,2.00
2018-12-12T16:08:36.930Z,2.22
2018-12-12T16:11:08.271Z,2.58
2018-12-12T16:13:33.863Z,4.30
2018-12-12T16:16:01.479Z,2.87
2018-12-12T16:18:28.976Z,2.65
2018-12-12T16:20:56.423Z,2.77
2018-12-12T16:23:23.950Z,2.20
2018-12-12T16:25:51.433Z,2.30
2018-12-12T16:28:18.904Z,2.25
2018-12-12T16:30:46.365Z,3.52
2018-12-12T16:33:15.936Z,2.58
2018-12-12T16:35:43.397Z,2.62
2018-12-12T16:38:10.848Z,3.60
2018-12-12T16:40:38.307Z,2.85
2018-12-12T16:43:05.824Z,2.47
2018-12-12T16:45:33.292Z,3.67
2018-12-12T16:48:00.735Z,3.67
2018-12-12T16:50:28.197Z,3.10
2018-12-12T16:52:55.644Z,4.25
2018-12-12T16:55:23.188Z,2.90
2018-12-12T16:57:50.639Z,4.17
2018-12-12T17:00:18.100Z,2.90
2018-12-12T17:02:45.816Z,3.12
2018-12-12T17:05:13.464Z,4.03
2018-12-12T17:07:40.916Z,2.60
2018-12-12T17:10:10.839Z,3.08
2018-12-12T17:12:37.893Z,4.50
2018-12-12T17:15:06.088Z,4.55
2018-12-12T17:17:33.537Z,3.45
2018-12-12T17:20:01.002Z,3.98
2018-12-12T17:22:28.440Z,3.83
2018-12-12T17:24:55.908Z,4.47
2018-12-12T17:27:23.357Z,3.33
2018-12-12T17:29:50.818Z,4.12
2018-12-12T17:32:18.260Z,4.83
2018-12-12T17:34:45.720Z,4.75
2018-12-12T17:37:13.169Z,4.00
2018-12-12T17:39:40.632Z,2.77
2018-12-12T17:42:08.077Z,4.05
2018-12-12T17:44:35.541Z,6.10
2018-12-12T17:47:02.984Z,3.85
2018-12-12T17:49:30.449Z,4.28
2018-12-12T17:51:57.896Z,3.00
2018-12-12T17:54:25.360Z,3.95
2018-12-12T17:56:52.805Z,3.72
2018-12-12T17:59:20.261Z,4.65
2018-12-12T18:01:47.717Z,5.97
2018-12-12T18:04:15.201Z,4.17
2018-12-12T18:06:42.672Z,3.25
2018-12-12T18:09:10.144Z,5.53
2018-12-12T18:11:37.614Z,4.35
2018-12-12T18:14:05.060Z,5.85
2018-12-12T18:16:32.521Z,4.67
2018-12-12T18:19:00.917Z,4.22
2018-12-12T18:21:28.382Z,4.85
2018-12-12T18:23:55.972Z,4.05
2018-12-12T18:26:23.448Z,4.35
2018-12-12T18:28:50.902Z,4.33
2018-12-12T18:31:18.367Z,4.22
2018-12-12T18:33:45.816Z,7.03
2018-12-12T18:36:13.272Z,4.20
2018-12-12T18:38:40.720Z,5.70
2018-12-12T18:41:08.184Z,4.60
2018-12-12T18:43:35.633Z,5.12
2018-12-12T18:46:03.096Z,4.67
2018-12-12T18:48:30.554Z,3.95
2018-12-12T18:50:58.003Z,4.03
2018-12-12T18:53:25.458Z,4.45
2018-12-12T18:55:52.923Z,4.28
2018-12-12T18:58:20.369Z,4.35
2018-12-12T19:00:47.829Z,5.30
2018-12-12T19:03:15.280Z,4.70
2018-12-12T19:05:42.748Z,5.08
2018-12-12T19:08:10.202Z,4.50
2018-12-12T19:10:38.193Z,4.37
2018-12-12T19:13:05.638Z,5.12
2018-12-12T19:15:33.112Z,6.53
2018-12-12T19:18:00.549Z,8.00
2018-12-12T19:20:28.027Z,13.38
2018-12-12T19:22:55.468Z,7.55
2018-12-12T19:25:22.944Z,6.30
2018-12-12T19:27:50.400Z,5.53
2018-12-12T19:30:17.861Z,6.55
2018-12-12T19:32:45.299Z,7.28
2018-12-12T19:35:12.752Z,9.28
2018-12-12T19:37:40.225Z,7.45
2018-12-12T19:40:08.177Z,5.33
2018-12-12T19:42:35.712Z,10.45
2018-12-12T19:45:03.517Z,6.37
2018-12-12T19:47:30.968Z,5.33
2018-12-12T19:49:58.404Z,5.78
2018-12-12T19:52:25.860Z,6.00
2018-12-12T19:54:53.305Z,5.25
2018-12-12T19:57:20.861Z,7.47
2018-12-12T19:59:48.309Z,8.93
2018-12-12T20:02:15.771Z,6.17
2018-12-12T20:04:43.220Z,8.05
2018-12-12T20:07:10.713Z,5.65
2018-12-12T20:09:38.164Z,7.40
2018-12-12T20:12:05.705Z,6.33
2018-12-12T20:14:33.158Z,8.85
2018-12-12T20:17:00.616Z,4.25
2018-12-12T20:19:28.060Z,5.28
2018-12-12T20:21:55.520Z,5.83
2018-12-12T20:24:22.962Z,5.85
2018-12-12T20:26:50.465Z,8.45
2018-12-12T20:29:17.916Z,6.90
2018-12-12T20:31:45.380Z,6.92
2018-12-12T20:34:12.837Z,6.60
2018-12-12T20:36:40.292Z,7.87
2018-12-12T20:39:07.786Z,7.15
2018-12-12T20:41:35.361Z,9.03
2018-12-12T20:44:05.724Z,7.28
2018-12-12T20:46:33.155Z,7.85
2018-12-12T20:49:00.627Z,7.65
2018-12-12T20:51:28.064Z,7.65
2018-12-12T20:53:55.530Z,8.75
2018-12-12T20:56:22.970Z,9.05
2018-12-12T20:58:50.438Z,10.65
2018-12-12T21:01:17.880Z,8.23
2018-12-12T21:03:45.336Z,6.72
2018-12-12T21:06:12.787Z,12.78
2018-12-12T21:08:40.244Z,6.50
2018-12-12T21:11:07.696Z,6.55
2018-12-12T21:13:35.161Z,9.93
2018-12-12T21:16:02.624Z,6.80
2018-12-12T21:18:30.076Z,8.15
2018-12-12T21:20:57.616Z,6.58
2018-12-12T21:23:25.073Z,9.73
2018-12-12T21:25:53.461Z,7.65
2018-12-12T21:28:20.913Z,8.18
2018-12-12T21:30:48.368Z,9.53
2018-12-12T21:33:15.826Z,6.45
2018-12-12T21:35:43.278Z,6.85
2018-12-12T21:38:10.749Z,8.50
2018-12-12T21:40:38.211Z,7.72
2018-12-12T21:43:05.660Z,8.78
2018-12-12T21:45:33.116Z,7.83
2018-12-12T21:48:00.585Z,9.25
2018-12-12T21:50:28.033Z,6.53
2018-12-12T21:52:55.488Z,6.47
2018-12-12T21:55:23.041Z,7.47
2018-12-12T21:57:50.508Z,6.85
2018-12-12T22:00:17.952Z,8.28
2018-12-12T22:02:45.612Z,8.05
2018-12-12T22:05:13.065Z,8.93
2018-12-12T22:07:40.524Z,9.75
2018-12-12T22:10:08.111Z,10.00
2018-12-12T22:12:35.567Z,10.35
2018-12-12T22:15:03.370Z,9.83
2018-12-12T22:17:30.829Z,8.68
2018-12-12T22:19:58.284Z,8.35
2018-12-12T22:22:25.756Z,10.20
2018-12-12T22:24:53.205Z,8.35
2018-12-12T22:27:20.669Z,9.83
2018-12-12T22:29:48.137Z,9.50
2018-12-12T22:32:15.589Z,9.28
2018-12-12T22:34:43.053Z,7.87
2018-12-12T22:37:10.507Z,7.25
2018-12-12T22:39:37.977Z,6.42
2018-12-12T22:42:05.432Z,9.10
2018-12-12T22:44:32.901Z,8.35
2018-12-12T22:47:00.354Z,8.53
2018-12-12T22:49:27.827Z,8.75
2018-12-12T22:51:55.272Z,8.53
2018-12-12T22:54:22.780Z,10.43
2018-12-12T22:56:50.236Z,9.43
2018-12-12T22:59:18.077Z,8.08
2018-12-12T23:01:45.525Z,8.75
2018-12-12T23:04:12.993Z,9.38
2018-12-12T23:06:40.548Z,11.15
2018-12-12T23:09:08.081Z,8.58
2018-12-12T23:11:35.576Z,8.55
2018-12-12T23:14:03.007Z,8.93
2018-12-12T23:16:30.481Z,9.08
2018-12-12T23:18:57.928Z,6.45
2018-12-12T23:21:25.469Z,8.90
2018-12-12T23:23:52.928Z,7.25
2018-12-12T23:26:20.409Z,10.05
2018-12-12T23:28:47.868Z,10.28
2018-12-12T23:31:15.343Z,12.07
2018-12-12T23:33:43.068Z,10.08
2018-12-12T23:36:10.533Z,10.23
2018-12-12T23:38:37.993Z,12.07
2018-12-12T23:41:05.769Z,6.78
2018-12-12T23:43:33.235Z,10.63
2018-12-12T23:46:00.707Z,10.50
2018-12-12T23:48:28.156Z,8.23
2018-12-12T23:50:56.540Z,8.68
2018-12-12T23:53:24.000Z,8.75
2018-12-12T23:55:51.472Z,12.13
2018-12-12T23:58:18.924Z,8.95
